createdAt,value
2023-07-02T00:02:49.145Z,98656.77
2023-07-02T00:12:55.427Z,98648.17
2023-07-02T00:22:59.102Z,98640.53
2023-07-02T00:34:03.447Z,98630.41
2023-07-02T00:46:08.518Z,98617.02
2023-07-02T00:56:12.429Z,98610.59
2023-07-02T01:06:17.087Z,98598.05
2023-07-02T01:17:21.498Z,98587.52
2023-07-02T01:28:25.889Z,98576.99
2023-07-02T01:38:29.856Z,98559.95
2023-07-02T01:48:37.701Z,98563.60
2023-07-02T01:59:42.607Z,98553.98
2023-07-02T02:11:11.086Z,98561.88
2023-07-02T02:21:15.028Z,98561.35
2023-07-02T02:31:19.194Z,98545.59
2023-07-02T02:42:24.689Z,98530.20
2023-07-02T02:52:33.590Z,98526.20
2023-07-02T03:03:15.401Z,98523.33
2023-07-02T03:13:19.148Z,98513.98
2023-07-02T03:23:23.803Z,98527.52
2023-07-02T03:33:47.676Z,98528.09
2023-07-02T03:43:51.371Z,98525.35
2023-07-02T03:53:55.102Z,98501.31
2023-07-02T04:03:59.576Z,98491.77
2023-07-02T04:14:03.886Z,98494.49
2023-07-02T04:24:07.864Z,98498.23
2023-07-02T04:34:11.964Z,98489.52
2023-07-02T04:44:15.683Z,98491.15
2023-07-02T04:54:19.384Z,98490.84
2023-07-02T05:05:23.761Z,98481.84
2023-07-02T05:15:27.869Z,98472.14
2023-07-02T05:25:31.776Z,98466.99
2023-07-02T05:36:15.648Z,98460.12
2023-07-02T05:46:59.864Z,98462.08
2023-07-02T05:58:04.383Z,98457.30
2023-07-02T06:09:08.726Z,98444.75
2023-07-02T06:19:13.620Z,98436.23
2023-07-02T06:29:17.412Z,98430.48
2023-07-02T06:40:01.591Z,98430.11
2023-07-02T06:50:11.931Z,98432.77
2023-07-02T07:00:16.177Z,98428.89
2023-07-02T07:11:20.687Z,98430.23
2023-07-02T07:22:25.297Z,98434.04
2023-07-02T07:33:30.216Z,98439.72
2023-07-02T07:44:34.582Z,98443.70
2023-07-02T07:54:38.245Z,98450.77
2023-07-02T08:05:22.451Z,98443.14
2023-07-02T08:16:06.664Z,98443.69
2023-07-02T08:27:11.014Z,98444.20
2023-07-02T08:37:14.910Z,98463.21
2023-07-02T08:47:18.911Z,98453.42
2023-07-02T08:57:50.759Z,98462.81
2023-07-02T09:08:57.765Z,98466.94
2023-07-02T09:20:08.107Z,98463.34
2023-07-02T09:30:17.471Z,98467.84
2023-07-02T09:40:22.267Z,98476.15
2023-07-02T09:50:26.336Z,98482.67
2023-07-02T10:00:39.674Z,98485.26
2023-07-02T10:10:43.885Z,98486.79
2023-07-02T10:20:47.849Z,98492.34
2023-07-02T10:31:58.939Z,98486.66
2023-07-02T10:43:09.478Z,98492.48
2023-07-02T10:53:33.082Z,98505.69
2023-07-02T11:03:36.921Z,98527.98
2023-07-02T11:13:48.436Z,98533.85
2023-07-02T11:24:52.922Z,98549.52
2023-07-02T11:36:40.637Z,98553.27
2023-07-02T11:46:45.161Z,98552.02
2023-07-02T11:56:49.499Z,98547.59
2023-07-02T12:06:54.147Z,98559.20
2023-07-02T12:16:57.972Z,98565.03
2023-07-02T12:27:02.094Z,98575.16
2023-07-02T12:37:06.564Z,98582.43
2023-07-02T12:47:10.460Z,98574.23
2023-07-02T12:57:14.334Z,98583.73
2023-07-02T13:07:18.550Z,98599.05
2023-07-02T13:17:23.019Z,98596.42
2023-07-02T13:27:26.743Z,98593.45
2023-07-02T13:38:31.250Z,98589.45
2023-07-02T13:49:35.373Z,98594.50
2023-07-02T13:59:39.107Z,98591.77
2023-07-02T14:09:42.833Z,98598.67
2023-07-02T14:19:46.557Z,98597.33
2023-07-02T14:29:53.427Z,98608.91
2023-07-02T14:40:37.694Z,98615.81
2023-07-02T14:51:45.370Z,98627.64
2023-07-02T15:01:54.338Z,98633.88
2023-07-02T15:11:58.125Z,98641.67
2023-07-02T15:22:01.901Z,98640.67
2023-07-02T15:32:05.782Z,98637.91
2023-07-02T15:42:09.528Z,98645.11
2023-07-02T15:52:13.269Z,98658.77
2023-07-02T16:02:17.084Z,98660.32
2023-07-02T16:12:21.086Z,98650.78
2023-07-02T16:23:25.461Z,98638.02
2023-07-02T16:34:09.939Z,98651.43
2023-07-02T16:44:19.146Z,98658.54
2023-07-02T16:55:23.344Z,98684.52
2023-07-02T17:05:27.182Z,98692.02
2023-07-02T17:16:31.627Z,98698.13
2023-07-02T17:27:36.032Z,98712.64
2023-07-02T17:38:40.571Z,98746.85
2023-07-02T17:48:45.882Z,98834.64
2023-07-02T17:59:51.823Z,98895.52
2023-07-02T18:10:42.748Z,98909.15
2023-07-02T18:21:13.406Z,98899.82
2023-07-02T18:31:17.236Z,98890.42
2023-07-02T18:42:21.825Z,98882.36
2023-07-02T18:52:25.676Z,98898.77
2023-07-02T19:02:30.461Z,98910.91
2023-07-02T19:12:34.503Z,98921.58
2023-07-02T19:22:38.268Z,98941.04
2023-07-02T19:32:42.203Z,98970.65
2023-07-02T19:43:46.382Z,98990.03
2023-07-02T19:53:50.606Z,98995.86
2023-07-02T20:04:34.871Z,99004.48
2023-07-02T20:14:41.057Z,99000.48
2023-07-02T20:26:04.032Z,99005.18
2023-07-02T20:36:08.233Z,99005.54
2023-07-02T20:46:14.413Z,99010.14
2023-07-02T20:56:18.353Z,99024.10
2023-07-02T21:06:24.458Z,99015.91
2023-07-02T21:16:57.663Z,99031.77
2023-07-02T21:27:01.787Z,99043.96
2023-07-02T21:37:05.690Z,99042.16
2023-07-02T21:47:09.546Z,99051.98
2023-07-02T21:57:13.272Z,99063.18
2023-07-02T22:07:17.168Z,99062.98
2023-07-02T22:18:24.174Z,99068.73
2023-07-02T22:29:28.692Z,99064.98
2023-07-02T22:40:33.541Z,99069.88
2023-07-02T22:50:38.637Z,99077.06
2023-07-02T23:00:42.708Z,99085.27
2023-07-02T23:10:46.808Z,99085.91
2023-07-02T23:21:51.230Z,99079.48
2023-07-02T23:33:15.316Z,99088.62
2023-07-02T23:43:39.296Z,99086.64
2023-07-02T23:53:42.951Z,99085.42
